Strona główna
METAR-TAF:

METAR-TAF

Lotnisko :

Sitiawan, Malezja

Szerokość geograficzna: 04-13N, Długość geograficzna: 100-42E, wysokość: 7 m

Aktualna obserwacja pogody

Raport powstał 1 godzina i 14 minut temu, godzina 08:00 UTC
Wiatr 5 kt od południowo-południowy zachód, zmienny między wschodnio-południowy wschód i zachód
Temperatura 31°C
Wilgotność 79%
Ciśnienie 1007 hPa
Widzialność 10 km lub więcej
Mało chmury na wysokości 1700 ft, Cumulonimbus.
Rozproszone chmury na wysokości 2000 ft

METAR: WMBA 070800Z 20005KT 110V270 9999 FEW017CB SCT020 31/27 Q1007

czas: 17:14 (09:14 UTC)


TAF: brakujący

Obserwacja i prognoza pogody dla ponad 4000 lotnisk (raport METAR i TAF).

Dostępne stacje oznaczono żółtymi i czerwonymi punktami na mapie.

Najedź kursorem aby zobaczyć nazwę stacji.

Kliknij aby zobaczyć obserwacje i prognozy pogody.

Aby zmienić mapę: kliknij na zielony przycisk z czarnym krzyżykiem, aby powiększyć; na zielony przycisk z myślnikiem, aby pomniejszyć; na zielone strzałki, aby przejść do map sąsiednich.


METAR-TAF: